createdAt,value
2022-12-29T00:01:37.481Z,54.67
2022-12-29T00:07:40.586Z,54.00
2022-12-29T00:14:01.808Z,57.67
2022-12-29T00:20:24.169Z,52.67
2022-12-29T00:26:45.007Z,54.00
2022-12-29T00:33:06.776Z,57.00
2022-12-29T00:39:35.160Z,57.00
2022-12-29T00:45:42.679Z,54.33
2022-12-29T00:51:44.941Z,45.33
2022-12-29T00:57:47.485Z,58.00
2022-12-29T01:03:49.631Z,58.33
2022-12-29T01:10:15.814Z,58.67
2022-12-29T01:16:17.940Z,60.50
2022-12-29T01:22:20.986Z,58.67
2022-12-29T01:28:26.372Z,58.00
2022-12-29T01:34:28.589Z,58.67
2022-12-29T01:40:31.229Z,54.00
2022-12-29T01:46:42.729Z,63.33
2022-12-29T01:52:53.823Z,61.67
2022-12-29T01:59:03.829Z,63.00
2022-12-29T02:05:12.654Z,65.33
2022-12-29T02:11:15.354Z,67.00
2022-12-29T02:17:29.396Z,66.00
2022-12-29T02:23:56.128Z,58.67
2022-12-29T02:30:31.622Z,60.33
2022-12-29T02:36:48.769Z,69.33
2022-12-29T02:43:04.286Z,71.00
2022-12-29T02:49:16.331Z,72.00
2022-12-29T02:55:20.008Z,71.33
2022-12-29T03:01:41.078Z,70.33
2022-12-29T03:07:57.914Z,67.00
2022-12-29T03:14:32.099Z,67.00
2022-12-29T03:20:50.794Z,68.00
2022-12-29T03:26:55.579Z,63.00
2022-12-29T03:33:03.679Z,70.00
2022-12-29T03:39:14.821Z,66.00
2022-12-29T03:45:19.804Z,63.00
2022-12-29T03:51:23.276Z,64.67
2022-12-29T03:57:27.596Z,64.67
2022-12-29T04:03:35.226Z,64.00
2022-12-29T04:09:37.960Z,63.33
2022-12-29T04:15:40.967Z,66.33
2022-12-29T04:21:43.471Z,63.00
2022-12-29T04:27:45.879Z,65.00
2022-12-29T04:34:10.161Z,57.67
2022-12-29T04:40:20.970Z,63.33
2022-12-29T04:46:23.668Z,59.33
2022-12-29T04:52:48.056Z,60.00
2022-12-29T04:58:50.339Z,62.00
2022-12-29T05:04:53.455Z,63.00
2022-12-29T05:10:56.825Z,66.67
2022-12-29T06:08:19.974Z,64.67
2022-12-29T06:14:23.987Z,66.00
2022-12-29T06:20:26.391Z,66.67
2022-12-29T06:26:32.273Z,65.67
2022-12-29T06:32:35.099Z,59.33
2022-12-29T06:38:40.689Z,61.33
2022-12-29T06:44:44.487Z,66.67
2022-12-29T06:50:46.885Z,66.67
2022-12-29T06:56:49.851Z,63.67
2022-12-29T07:02:52.654Z,57.33
2022-12-29T07:08:57.298Z,57.33
2022-12-29T07:15:01.130Z,63.33
2022-12-29T07:21:08.149Z,63.00
2022-12-29T07:27:10.708Z,57.67
2022-12-29T07:33:12.805Z,62.67
2022-12-29T07:39:14.902Z,54.00
2022-12-29T07:45:17.327Z,57.33
2022-12-29T07:51:24.413Z,55.33
2022-12-29T07:57:31.846Z,54.00
2022-12-29T08:03:34.550Z,55.67
2022-12-29T08:09:46.721Z,54.75
2022-12-29T08:15:54.774Z,56.00
2022-12-29T08:21:58.228Z,49.50
2022-12-29T08:28:05.455Z,53.00
2022-12-29T08:34:07.589Z,47.50
2022-12-29T08:40:12.965Z,46.75
2022-12-29T08:46:18.522Z,39.50
2022-12-29T08:52:20.649Z,30.00
2022-12-29T08:58:22.828Z,32.00
2022-12-29T09:04:26.693Z,29.75
2022-12-29T09:10:29.127Z,24.25
2022-12-29T09:16:32.354Z,27.00
2022-12-29T09:22:37.656Z,27.25
2022-12-29T09:28:41.431Z,32.25
2022-12-29T09:34:46.233Z,21.50
2022-12-29T09:41:06.569Z,20.50
2022-12-29T09:47:14.522Z,20.75
2022-12-29T09:53:42.290Z,21.00
2022-12-29T09:59:46.985Z,32.50
2022-12-29T10:06:01.344Z,29.00
2022-12-29T10:12:25.450Z,29.75
2022-12-29T10:19:04.770Z,22.00
2022-12-29T10:25:18.926Z,21.75
2022-12-29T10:31:24.704Z,24.25
2022-12-29T10:37:40.332Z,25.75
2022-12-29T10:43:52.569Z,23.50
2022-12-29T10:49:59.608Z,26.25
2022-12-29T10:56:03.334Z,26.00
2022-12-29T11:02:08.610Z,19.25
2022-12-29T11:08:23.915Z,23.00
2022-12-29T11:15:15.377Z,21.00
2022-12-29T11:28:41.778Z,24.75
2022-12-29T11:35:07.536Z,44.00
2022-12-29T11:41:15.881Z,29.50
2022-12-29T11:47:31.780Z,26.75
2022-12-29T11:53:51.479Z,20.50
2022-12-29T12:00:00.432Z,21.75
2022-12-29T12:06:03.808Z,22.00
2022-12-29T12:12:09.882Z,25.00
2022-12-29T12:18:22.800Z,32.00
2022-12-29T12:25:06.635Z,28.25
2022-12-29T12:31:20.278Z,26.75
2022-12-29T12:37:37.537Z,29.25
2022-12-29T12:43:49.660Z,33.25
2022-12-29T12:50:33.236Z,29.25
2022-12-29T12:56:45.243Z,26.00
2022-12-29T13:03:18.656Z,34.00
2022-12-29T13:09:46.708Z,34.50
2022-12-29T13:16:16.245Z,27.75
2022-12-29T13:23:06.386Z,23.50
2022-12-29T13:29:47.260Z,30.00
2022-12-29T13:36:18.240Z,23.00
2022-12-29T13:42:20.927Z,24.00
2022-12-29T13:48:36.428Z,14.50
2022-12-29T13:54:48.287Z,19.50
2022-12-29T14:00:57.347Z,22.00
2022-12-29T14:07:08.246Z,22.75
2022-12-29T14:13:18.441Z,28.25
2022-12-29T14:19:29.927Z,31.00
2022-12-29T14:26:10.337Z,28.50
2022-12-29T14:32:34.208Z,26.67
2022-12-29T14:38:47.609Z,22.50
2022-12-29T14:45:13.966Z,25.25
2022-12-29T14:51:34.318Z,28.25
2022-12-29T14:57:41.705Z,29.25
2022-12-29T15:03:52.693Z,33.00
2022-12-29T15:10:07.434Z,35.00
2022-12-29T15:16:38.062Z,40.50
2022-12-29T15:22:45.371Z,47.50
2022-12-29T15:28:49.596Z,46.00
2022-12-29T15:34:59.299Z,49.50
2022-12-29T15:41:06.975Z,53.00
2022-12-29T15:47:19.877Z,51.00
2022-12-29T15:53:33.395Z,53.00
2022-12-29T15:59:36.613Z,53.75
2022-12-29T16:05:42.284Z,59.50
2022-12-29T16:11:57.989Z,49.75
2022-12-29T16:18:02.740Z,55.75
2022-12-29T16:24:16.228Z,54.25
2022-12-29T16:30:26.422Z,54.00
2022-12-29T16:36:37.632Z,50.75
2022-12-29T16:42:39.978Z,50.50
2022-12-29T16:48:52.274Z,56.00
2022-12-29T16:55:01.128Z,50.00
2022-12-29T17:01:14.689Z,57.00
2022-12-29T17:07:27.575Z,52.50
2022-12-29T17:13:31.336Z,58.25
2022-12-29T17:19:40.356Z,58.50
2022-12-29T17:25:43.185Z,63.33
2022-12-29T17:31:45.385Z,60.25
2022-12-29T17:37:54.036Z,61.50
2022-12-29T17:43:58.871Z,62.75
2022-12-29T17:50:01.650Z,60.25
2022-12-29T17:56:07.046Z,63.25
2022-12-29T18:02:30.434Z,61.75
2022-12-29T18:08:35.559Z,61.00
2022-12-29T18:14:38.234Z,63.25
2022-12-29T18:20:43.280Z,66.25
2022-12-29T18:26:45.824Z,58.00
2022-12-29T18:32:48.955Z,60.00
2022-12-29T18:38:55.037Z,61.25
2022-12-29T18:44:57.163Z,60.25
2022-12-29T18:51:00.335Z,64.00
2022-12-29T18:57:03.989Z,57.00
2022-12-29T19:03:07.771Z,54.50
2022-12-29T19:09:09.987Z,61.50
2022-12-29T19:15:24.133Z,62.33
2022-12-29T19:21:27.182Z,58.25
2022-12-29T19:27:29.328Z,60.00
2022-12-29T19:33:31.782Z,62.00
2022-12-29T19:39:34.284Z,60.00
2022-12-29T19:45:40.599Z,62.25
2022-12-29T19:51:43.173Z,60.25
2022-12-29T19:57:46.087Z,57.00
2022-12-29T20:03:49.667Z,53.25
2022-12-29T20:09:52.259Z,55.00
2022-12-29T20:15:58.965Z,53.50
2022-12-29T20:22:02.482Z,56.75
2022-12-29T20:28:04.599Z,52.25
2022-12-29T20:34:10.103Z,59.50
2022-12-29T20:40:13.210Z,60.00
2022-12-29T20:46:21.300Z,61.75
2022-12-29T20:52:25.192Z,63.00
2022-12-29T20:58:32.985Z,64.50
2022-12-29T21:05:05.420Z,58.67
2022-12-29T21:11:00.282Z,63.00
2022-12-29T21:17:03.966Z,64.75
2022-12-29T21:23:06.833Z,62.67
2022-12-29T21:29:09.289Z,64.00
2022-12-29T21:35:11.858Z,62.75
2022-12-29T21:41:17.241Z,63.33
2022-12-29T21:47:19.403Z,58.50
2022-12-29T21:53:21.591Z,61.00
2022-12-29T21:59:42.284Z,60.00
2022-12-29T22:06:03.528Z,60.00
2022-12-29T22:12:26.159Z,61.00
2022-12-29T22:18:29.669Z,58.25
2022-12-29T22:24:33.626Z,59.50
2022-12-29T22:30:36.385Z,61.50
2022-12-29T22:36:38.559Z,59.75
2022-12-29T22:42:46.511Z,61.33
2022-12-29T22:48:48.623Z,57.67
2022-12-29T22:54:52.251Z,62.33
2022-12-29T23:00:54.479Z,64.67
2022-12-29T23:06:56.762Z,64.67
2022-12-29T23:12:58.953Z,61.00
2022-12-29T23:19:01.107Z,67.67
2022-12-29T23:25:03.777Z,59.67
2022-12-29T23:31:06.070Z,60.00
2022-12-29T23:37:09.619Z,63.25
2022-12-29T23:43:13.261Z,61.25
2022-12-29T23:49:17.116Z,62.67
2022-12-29T23:55:19.154Z,63.00
